Aeroporto :
LOGIN :

Iscrizione | Disclaimer

   EN    FR    IT 

 










Sommario :    VFR   VFR Marginale   IFR   IFR Intensivo   IFR Molto Intensivo
Visibilità : 
Base nubi : 
>= 8 km
>= 3000ft
5 / 8 km
1000 / 3000 ft
1500m / 5 km
500 / 1000 ft
800 / 1500m
200 / 500 ft
< 800m
< 200 ft
Simboli :   Temporali  Nebbia  Neve Forte  Precipitazioni Forti  Vento > 20 kt
SIGMETs :   Varie  Temporali  Ghiacco  Turbolenza  Onda orograficha  Ceneri Vulcaniche






- Altitudine del aeroporto : 239 ft
- Codice IATA : VRN


LIPX - Villafranca Int. Verona

ULTIMO METAR :
  • 250250Z AUTO 04006KT 010V070 9999 BKN012/// 18/17 Q1000

METARs OBSOLETI :
  • 250220Z AUTO 04005KT 9999 -RA BKN052/// BKN100/// 18/17 Q1000
  • 250150Z AUTO 05006KT 9999 -DZ FEW012/// BKN067/// BKN094/// 18/17 Q1001
  • 250120Z AUTO 06004KT 030V090 9999 SCT013/// BKN072/// BKN150/// 18/17 Q1002
  • 250050Z AUTO 04006KT 9999 FEW073/// BKN170/// 18/17 Q1002
  • 250020Z AUTO 07007KT 030V090 9999 OVC170/// 18/17 Q1002

TAF TAF LIPX
Valido dal 25 a 03 ore il 25 a 12 ore UTC


250200Z 2503/2512 VRB05KT 9999 SCT020
TEMPO 2503/2506 4000 TSRA



MetMap, La meteo Aeronautica in un colpo d'occhio ! - Copyright ORBIFLY Dicembre 2007 - Disclaimer

ORBIFLY MET'MAP TEAM :

Programmazione e sviluppo : Alexandra Zaïnal
Concezione : Baudouin d'Aumeries
Aiuto per la programmazione : Marc-Olivier Méhu
Supporto tecnico e logistico : Manuel Goepfert
Aiuto per la traduzione : Arnaldo La Scala

Contatto : metmap@orbifly.com




FONTI E CREDITI :

   NOAA